Time;durP1;ratioP1;P1;durP2;ratioP2;P2;SDS_P1;SDS_P2;PMS_P1;PMS_P2;Temp;Humidity;BMP_temperature;BMP_pressure;BME280_temperature;BME280_humidity;BME280_pressure;Samples;Min_cycle;Max_cycle;Signal;HPM_P1;HPM_P2
2023/08/31 00:00:10;;;;;;;0.95;0.40;;;15.60;75.50;;;;;;5006502;28;20112;-78
2023/08/31 00:02:36;;;;;;;0.45;0.45;;;15.50;75.60;;;;;;5014184;28;20068;-78
2023/08/31 00:05:03;;;;;;;0.82;0.52;;;15.50;75.70;;;;;;5010052;28;20378;-78
2023/08/31 00:07:29;;;;;;;0.75;0.60;;;15.50;75.70;;;;;;5018702;28;20026;-78
2023/08/31 00:09:55;;;;;;;0.88;0.82;;;15.50;75.90;;;;;;5012404;28;20056;-78
2023/08/31 00:12:22;;;;;;;1.05;0.52;;;15.50;76.10;;;;;;5012574;28;20049;-78
2023/08/31 00:14:49;;;;;;;0.70;0.70;;;15.40;76.30;;;;;;5010063;28;20129;-78
2023/08/31 00:17:15;;;;;;;0.82;0.52;;;15.40;76.50;;;;;;5011475;28;20041;-78
2023/08/31 00:19:41;;;;;;;1.17;0.90;;;15.40;76.60;;;;;;4993163;28;20033;-78
2023/08/31 00:22:06;;;;;;;5.55;0.73;;;15.40;76.50;;;;;;5007559;28;20439;-78
2023/08/31 00:24:33;;;;;;;0.75;0.60;;;15.40;76.50;;;;;;5016000;28;20040;-78
2023/08/31 00:26:59;;;;;;;0.98;0.68;;;15.40;76.50;;;;;;5014093;28;20137;-78
2023/08/31 00:29:25;;;;;;;1.05;0.80;;;15.40;76.80;;;;;;5006626;28;20132;-75
2023/08/31 00:31:53;;;;;;;0.47;0.47;;;15.40;76.90;;;;;;5016485;28;20037;-75
2023/08/31 00:34:19;;;;;;;0.60;0.57;;;15.40;77.00;;;;;;5011804;28;20087;-75
2023/08/31 00:36:44;;;;;;;0.65;0.65;;;15.40;76.80;;;;;;5010515;28;20565;-75
2023/08/31 00:39:10;;;;;;;0.50;0.50;;;15.30;77.10;;;;;;5009886;28;20121;-78
2023/08/31 00:41:37;;;;;;;0.65;0.65;;;15.30;77.30;;;;;;5010540;28;20030;-78
2023/08/31 00:44:04;;;;;;;0.80;0.50;;;15.30;77.30;;;;;;5006012;28;20392;-78
2023/08/31 00:46:31;;;;;;;0.60;0.60;;;15.30;77.20;;;;;;5009004;28;20033;-78
2023/08/31 00:48:58;;;;;;;0.55;0.40;;;15.30;77.30;;;;;;5012430;28;20572;-78
2023/08/31 00:51:24;;;;;;;0.60;0.60;;;15.30;77.20;;;;;;5009090;28;20025;-78
2023/08/31 00:53:54;;;;;;;0.40;0.40;;;15.30;77.30;;;;;;5017280;28;20048;-78
2023/08/31 00:56:20;;;;;;;2.75;0.73;;;15.20;77.50;;;;;;5009623;28;20409;-75
2023/08/31 00:58:46;;;;;;;4.32;0.88;;;15.20;77.70;;;;;;5023829;28;20025;-75
2023/08/31 01:01:22;;;;;;;0.68;0.50;;;15.20;77.80;;;;;;4998778;28;20403;-75
2023/08/31 01:04:12;;;;;;;1.23;0.88;;;15.10;78.00;;;;;;5013234;28;20029;-75
2023/08/31 01:06:47;;;;;;;2.45;0.60;;;15.00;78.30;;;;;;5010457;28;20088;-75
2023/08/31 01:09:27;;;;;;;0.75;0.70;;;15.00;78.40;;;;;;5005450;28;20032;-75
2023/08/31 01:12:09;;;;;;;0.80;0.68;;;15.00;78.50;;;;;;5018475;28;20105;-75
2023/08/31 01:15:11;;;;;;;2.80;0.98;;;15.00;78.50;;;;;;5007767;28;20018;-75
2023/08/31 01:17:43;;;;;;;0.93;0.70;;;15.00;78.60;;;;;;4966571;28;20065;-75
2023/08/31 01:20:14;;;;;;;2.15;1.17;;;15.00;78.80;;;;;;5010489;28;20264;-76
2023/08/31 01:23:00;;;;;;;2.15;1.27;;;15.00;79.40;;;;;;5010359;28;20030;-75
2023/08/31 01:25:27;;;;;;;1.85;1.33;;;15.00;79.20;;;;;;5013995;28;20124;-75
2023/08/31 01:27:53;;;;;;;2.90;1.42;;;15.00;79.20;;;;;;5013681;28;20030;-76
2023/08/31 01:30:18;;;;;;;2.05;1.23;;;15.00;79.10;;;;;;5015834;28;20440;-79
2023/08/31 01:32:45;;;;;;;3.78;1.20;;;15.00;79.10;;;;;;5013896;28;20022;-79
2023/08/31 01:35:12;;;;;;;1.77;1.02;;;15.10;79.10;;;;;;5013272;28;20104;-79
2023/08/31 01:37:50;;;;;;;1.50;1.35;;;15.10;79.10;;;;;;5013938;28;20473;-79
2023/08/31 01:40:39;;;;;;;2.85;1.70;;;15.10;79.10;;;;;;5014664;28;20052;-79
2023/08/31 01:43:07;;;;;;;1.20;1.10;;;15.10;79.10;;;;;;5030082;28;20034;-79
2023/08/31 01:45:34;;;;;;;1.50;1.30;;;15.10;79.20;;;;;;5013264;28;20084;-75
2023/08/31 01:48:00;;;;;;;1.90;1.40;;;15.10;79.10;;;;;;5015424;28;20029;-75
2023/08/31 01:50:26;;;;;;;2.85;2.00;;;15.10;79.10;;;;;;5017690;28;20021;-79
2023/08/31 01:52:55;;;;;;;3.10;2.20;;;15.10;79.30;;;;;;5011304;28;20092;-79
2023/08/31 01:55:22;;;;;;;3.38;2.03;;;15.00;79.50;;;;;;5015391;28;20298;-79
2023/08/31 01:57:47;;;;;;;4.38;2.90;;;15.00;79.70;;;;;;5010936;28;20084;-79
2023/08/31 02:00:15;;;;;;;4.05;2.17;;;15.00;80.10;;;;;;5016433;28;20033;-79
2023/08/31 02:02:41;;;;;;;2.88;1.90;;;15.00;80.00;;;;;;5022403;28;20041;-79
2023/08/31 02:05:07;;;;;;;2.53;1.98;;;14.90;80.00;;;;;;5011692;28;20021;-79
2023/08/31 02:07:33;;;;;;;2.47;1.85;;;15.00;80.00;;;;;;5018625;28;20030;-79
2023/08/31 02:09:59;;;;;;;1.80;1.40;;;15.00;79.90;;;;;;5012245;28;20110;-79
2023/08/31 02:12:25;;;;;;;8.05;2.63;;;15.00;79.90;;;;;;5011705;28;20489;-79
2023/08/31 02:14:50;;;;;;;5.03;2.45;;;15.00;80.10;;;;;;5011207;28;20834;-79
2023/08/31 02:17:16;;;;;;;2.97;2.03;;;15.00;80.30;;;;;;5026230;28;20087;-79
2023/08/31 02:19:42;;;;;;;3.30;2.08;;;15.00;80.40;;;;;;5009036;28;20413;-75
2023/08/31 02:22:08;;;;;;;7.57;2.88;;;15.00;80.30;;;;;;5008836;28;20030;-75
2023/08/31 02:24:34;;;;;;;2.25;1.77;;;15.00;80.40;;;;;;5012590;28;20026;-75
2023/08/31 02:26:59;;;;;;;3.55;1.88;;;15.00;80.50;;;;;;5010314;28;20393;-75
2023/08/31 02:29:25;;;;;;;3.53;2.47;;;15.00;80.40;;;;;;5013742;28;20042;-75
2023/08/31 02:31:51;;;;;;;2.60;2.10;;;15.10;80.20;;;;;;5011409;28;20030;-75
2023/08/31 02:34:16;;;;;;;3.65;2.67;;;15.10;80.00;;;;;;4995492;28;20084;-79
2023/08/31 02:36:42;;;;;;;5.03;2.47;;;15.10;80.10;;;;;;5009367;28;20066;-79
2023/08/31 02:39:07;;;;;;;3.65;2.70;;;15.10;80.20;;;;;;5011862;28;20505;-79
2023/08/31 02:41:33;;;;;;;3.38;2.28;;;15.10;80.30;;;;;;5016852;28;20428;-79
2023/08/31 02:43:59;;;;;;;2.70;2.33;;;15.10;80.30;;;;;;4994646;28;20061;-79
2023/08/31 02:46:24;;;;;;;3.13;1.77;;;15.10;80.40;;;;;;5010988;28;20038;-80
2023/08/31 02:48:50;;;;;;;5.03;2.65;;;15.10;80.40;;;;;;5009606;28;20504;-80
2023/08/31 02:51:16;;;;;;;4.82;2.67;;;15.10;80.40;;;;;;5013377;28;20041;-80
2023/08/31 02:53:41;;;;;;;5.50;2.42;;;15.20;80.50;;;;;;5014577;28;20026;-78
2023/08/31 02:56:07;;;;;;;2.78;2.10;;;15.20;80.70;;;;;;5010617;28;20729;-78
2023/08/31 02:58:33;;;;;;;2.20;1.70;;;15.20;80.60;;;;;;5009659;28;20739;-80
2023/08/31 03:01:11;;;;;;;2.20;2.00;;;15.30;80.50;;;;;;5020311;28;20036;-81
2023/08/31 03:03:38;;;;;;;3.30;2.20;;;15.30;80.40;;;;;;5009303;28;20033;-76
2023/08/31 03:06:05;;;;;;;4.03;2.17;;;15.30;80.50;;;;;;5033688;28;20026;-73
2023/08/31 03:08:31;;;;;;;2.85;2.22;;;15.40;80.50;;;;;;5011114;28;20963;-73
2023/08/31 03:10:58;;;;;;;3.75;1.90;;;15.40;80.40;;;;;;5017491;28;20026;-73
2023/08/31 03:13:24;;;;;;;3.22;2.60;;;15.40;80.20;;;;;;5007805;28;20061;-73
2023/08/31 03:15:50;;;;;;;2.92;1.83;;;15.40;80.20;;;;;;5013501;28;20069;-73
2023/08/31 03:18:15;;;;;;;4.30;2.13;;;15.40;80.30;;;;;;5015322;28;20041;-73
2023/08/31 03:20:41;;;;;;;3.55;2.10;;;15.50;80.20;;;;;;5025872;28;20038;-73
2023/08/31 03:23:09;;;;;;;2.83;1.92;;;15.50;80.10;;;;;;5013390;28;20095;-73
2023/08/31 03:25:35;;;;;;;2.75;1.95;;;15.50;80.20;;;;;;5009004;28;20682;-73
2023/08/31 03:28:00;;;;;;;4.47;2.83;;;15.50;80.20;;;;;;5010509;28;20026;-73
2023/08/31 03:30:26;;;;;;;4.28;2.80;;;15.40;80.40;;;;;;5014780;28;20393;-73
2023/08/31 03:32:52;;;;;;;2.83;2.38;;;15.40;81.10;;;;;;5009616;28;20033;-74
2023/08/31 03:35:17;;;;;;;3.63;2.38;;;15.40;80.70;;;;;;5006248;28;20033;-73
2023/08/31 03:37:46;;;;;;;4.20;2.97;;;15.40;80.90;;;;;;5008668;28;20480;-73
2023/08/31 03:40:12;;;;;;;3.30;2.30;;;15.40;81.00;;;;;;5009881;28;20042;-74
2023/08/31 03:42:37;;;;;;;3.05;2.25;;;15.40;81.00;;;;;;5010133;28;20568;-73
2023/08/31 03:45:04;;;;;;;5.10;1.95;;;15.40;80.80;;;;;;5008430;28;20098;-74
2023/08/31 03:47:30;;;;;;;6.88;2.50;;;15.50;80.70;;;;;;5032998;28;20030;-74
2023/08/31 03:49:56;;;;;;;5.38;2.17;;;15.50;80.60;;;;;;5014756;28;20053;-74
2023/08/31 03:52:23;;;;;;;3.20;2.30;;;15.50;80.60;;;;;;5009081;28;20065;-74
2023/08/31 03:54:49;;;;;;;2.08;1.77;;;15.50;80.50;;;;;;5013504;28;20500;-73
2023/08/31 03:57:14;;;;;;;2.08;1.67;;;15.50;80.40;;;;;;5011672;28;20077;-79
2023/08/31 03:59:49;;;;;;;4.50;2.05;;;15.50;80.40;;;;;;5122175;27;20412;-80
2023/08/31 04:02:14;;;;;;;8.18;2.45;;;15.40;80.40;;;;;;5108535;28;20028;-80
2023/08/31 04:04:40;;;;;;;5.22;2.08;;;15.40;80.40;;;;;;5126747;27;20051;-81
2023/08/31 04:07:06;;;;;;;2.17;1.75;;;15.40;80.40;;;;;;5115181;28;20410;-81
2023/08/31 04:09:32;;;;;;;2.67;2.03;;;15.40;80.50;;;;;;5121318;27;20485;-80
2023/08/31 04:11:58;;;;;;;2.65;2.13;;;15.40;80.40;;;;;;5110587;28;20036;-80
2023/08/31 04:14:26;;;;;;;3.60;2.30;;;15.40;80.40;;;;;;5102129;28;20462;-81
2023/08/31 04:16:51;;;;;;;3.28;2.20;;;15.50;80.50;;;;;;5123645;27;20560;-81
2023/08/31 04:19:17;;;;;;;3.80;2.42;;;15.50;80.50;;;;;;5125318;27;20051;-81
2023/08/31 04:21:43;;;;;;;4.28;2.42;;;15.50;80.60;;;;;;5121524;27;20024;-80
2023/08/31 04:24:09;;;;;;;2.92;2.30;;;15.50;80.70;;;;;;5126408;27;20469;-80
2023/08/31 04:26:35;;;;;;;4.50;2.40;;;15.50;80.70;;;;;;5128957;27;20038;-80
2023/08/31 04:29:03;;;;;;;4.82;2.30;;;15.50;80.80;;;;;;5127679;27;20427;-75
2023/08/31 04:31:29;;;;;;;3.88;2.85;;;15.50;80.90;;;;;;5122214;27;20081;-75
2023/08/31 04:33:55;;;;;;;3.10;2.17;;;15.50;80.90;;;;;;5122141;27;20039;-75
2023/08/31 04:36:21;;;;;;;3.17;2.33;;;15.50;81.00;;;;;;5130938;27;20035;-76
2023/08/31 04:38:48;;;;;;;5.00;2.35;;;15.50;81.00;;;;;;5123954;27;20038;-75
2023/08/31 04:41:14;;;;;;;4.55;1.95;;;15.50;81.00;;;;;;5123495;27;20031;-80
2023/08/31 04:43:40;;;;;;;3.25;2.20;;;15.50;81.10;;;;;;5121936;27;20069;-80
2023/08/31 04:46:06;;;;;;;2.70;2.28;;;15.50;81.00;;;;;;5132371;27;20515;-80
2023/08/31 04:48:32;;;;;;;3.85;2.60;;;15.50;81.00;;;;;;5106359;28;20023;-80
2023/08/31 04:50:58;;;;;;;2.50;1.98;;;15.50;81.00;;;;;;5123773;27;20056;-80
2023/08/31 04:53:24;;;;;;;3.55;1.90;;;15.50;81.10;;;;;;5125426;27;20584;-80
2023/08/31 04:55:50;;;;;;;4.43;2.25;;;15.50;81.00;;;;;;5122862;27;20042;-80
2023/08/31 04:58:15;;;;;;;3.58;2.30;;;15.50;81.00;;;;;;5117955;27;20051;-80
2023/08/31 05:00:41;;;;;;;2.58;1.98;;;15.50;81.10;;;;;;5104143;27;20031;-80
2023/08/31 05:03:07;;;;;;;4.47;2.08;;;15.50;81.20;;;;;;5122391;27;20031;-80
2023/08/31 05:05:32;;;;;;;3.10;2.03;;;15.50;81.30;;;;;;5121936;27;20076;-79
2023/08/31 05:07:59;;;;;;;2.55;1.77;;;15.50;81.30;;;;;;5124577;27;20054;-79
2023/08/31 05:10:24;;;;;;;3.08;1.67;;;15.50;81.30;;;;;;5113959;27;20158;-79
2023/08/31 05:12:50;;;;;;;4.28;2.05;;;15.50;81.40;;;;;;5109954;27;20165;-80
2023/08/31 05:15:16;;;;;;;5.25;3.40;;;15.50;81.70;;;;;;5110460;27;20043;-79
2023/08/31 05:17:42;;;;;;;4.95;2.33;;;15.50;81.90;;;;;;5110397;28;20027;-75
2023/08/31 05:20:09;;;;;;;3.08;2.40;;;15.50;82.10;;;;;;5111435;28;20080;-75
2023/08/31 05:22:36;;;;;;;5.65;2.92;;;15.50;82.10;;;;;;5110723;28;20498;-76
2023/08/31 05:25:01;;;;;;;3.95;2.13;;;15.40;82.10;;;;;;5113208;27;20023;-75
2023/08/31 05:27:27;;;;;;;3.35;2.45;;;15.50;82.30;;;;;;5107425;27;20184;-75
2023/08/31 05:29:53;;;;;;;4.75;2.35;;;15.40;82.50;;;;;;5108742;28;20080;-75
2023/08/31 05:32:18;;;;;;;2.05;1.73;;;15.40;82.40;;;;;;5090780;28;20100;-75
2023/08/31 05:34:44;;;;;;;5.40;2.58;;;15.50;82.50;;;;;;5116490;27;20487;-75
2023/08/31 05:37:10;;;;;;;2.63;1.98;;;15.50;82.50;;;;;;5108400;27;20389;-75
2023/08/31 05:39:35;;;;;;;7.28;2.55;;;15.50;82.50;;;;;;5110119;28;20549;-75
2023/08/31 05:42:01;;;;;;;2.97;2.20;;;15.50;82.50;;;;;;5112230;28;20059;-75
2023/08/31 05:44:27;;;;;;;3.22;2.20;;;15.50;82.60;;;;;;5111633;27;20062;-74
2023/08/31 05:46:53;;;;;;;2.88;1.90;;;15.50;82.80;;;;;;5114724;27;20042;-74
2023/08/31 05:49:18;;;;;;;3.47;2.40;;;15.60;82.80;;;;;;5113875;28;20034;-75
2023/08/31 05:51:44;;;;;;;4.50;2.45;;;15.60;82.80;;;;;;5112365;28;20027;-74
2023/08/31 05:54:13;;;;;;;4.40;2.38;;;15.60;83.00;;;;;;5110829;28;20024;-79
2023/08/31 05:56:41;;;;;;;3.53;2.33;;;15.60;83.00;;;;;;5110124;28;20036;-74
2023/08/31 05:59:07;;;;;;;3.45;2.65;;;15.60;83.20;;;;;;5112269;28;20440;-74
2023/08/31 06:01:34;;;;;;;4.45;2.30;;;15.50;83.30;;;;;;5110785;28;20023;-79
2023/08/31 06:04:00;;;;;;;4.38;3.70;;;15.50;83.40;;;;;;5108380;27;20042;-79
2023/08/31 06:06:26;;;;;;;3.53;2.42;;;15.60;83.50;;;;;;5103521;27;20027;-79
2023/08/31 06:08:53;;;;;;;3.88;2.78;;;15.50;83.60;;;;;;5110059;27;20087;-79
2023/08/31 06:11:19;;;;;;;5.68;4.38;;;15.50;83.60;;;;;;5106199;28;20456;-79
2023/08/31 06:13:44;;;;;;;4.65;3.67;;;15.60;83.90;;;;;;5104226;27;20032;-78
2023/08/31 06:16:10;;;;;;;4.93;4.15;;;15.50;83.90;;;;;;5106733;27;20039;-76
2023/08/31 06:18:36;;;;;;;6.07;3.33;;;15.50;84.10;;;;;;5112519;27;20088;-76
2023/08/31 06:21:02;;;;;;;4.97;3.55;;;15.50;84.20;;;;;;5108835;28;20028;-75
2023/08/31 06:23:27;;;;;;;2.90;2.38;;;15.50;84.40;;;;;;5109235;27;20050;-78
2023/08/31 06:25:53;;;;;;;8.60;3.45;;;15.50;84.30;;;;;;5108959;27;20038;-80
2023/08/31 06:28:19;;;;;;;6.85;3.75;;;15.50;84.30;;;;;;5091599;28;20078;-79
2023/08/31 06:30:47;;;;;;;6.03;3.53;;;15.50;84.30;;;;;;5094709;27;20032;-75
2023/08/31 06:33:17;;;;;;;10.38;3.75;;;15.60;84.20;;;;;;5116005;27;20037;-76
2023/08/31 06:35:45;;;;;;;4.68;3.00;;;15.60;84.00;;;;;;5117303;27;20032;-78
2023/08/31 06:38:11;;;;;;;4.53;2.63;;;15.60;84.10;;;;;;5100678;27;20023;-76
2023/08/31 06:40:36;;;;;;;6.25;3.05;;;15.60;84.10;;;;;;5109396;28;20106;-76
2023/08/31 06:43:03;;;;;;;5.55;3.22;;;15.70;84.10;;;;;;5104153;28;20376;-76
2023/08/31 06:45:29;;;;;;;5.35;3.83;;;15.80;84.10;;;;;;5108310;27;20024;-78
2023/08/31 06:47:54;;;;;;;5.07;3.97;;;15.90;84.00;;;;;;5102849;28;20587;-73
2023/08/31 06:50:20;;;;;;;2.83;2.55;;;16.10;83.80;;;;;;5105571;28;20027;-74
2023/08/31 06:52:46;;;;;;;4.20;3.22;;;16.20;83.40;;;;;;5105367;27;20172;-75
2023/08/31 06:55:12;;;;;;;2.80;2.28;;;16.20;83.40;;;;;;5096166;28;20386;-67
2023/08/31 06:57:38;;;;;;;2.78;2.53;;;16.10;83.40;;;;;;5106310;28;20039;-69
2023/08/31 07:00:05;;;;;;;3.85;2.58;;;16.10;83.50;;;;;;5107151;28;20161;-76
2023/08/31 07:02:31;;;;;;;4.72;2.90;;;16.00;83.60;;;;;;5110139;28;20110;-75
2023/08/31 07:04:57;;;;;;;3.75;2.78;;;15.90;83.70;;;;;;5110334;27;20597;-75
2023/08/31 07:07:22;;;;;;;3.90;2.90;;;15.90;84.00;;;;;;5104475;28;20023;-72
2023/08/31 07:09:48;;;;;;;3.78;2.83;;;15.80;84.10;;;;;;5104463;28;20040;-70
2023/08/31 07:12:14;;;;;;;6.28;3.50;;;15.80;84.30;;;;;;5107327;28;20035;-70
2023/08/31 07:14:40;;;;;;;5.05;3.78;;;15.80;84.30;;;;;;5105123;27;20039;-68
2023/08/31 07:17:06;;;;;;;4.45;3.13;;;15.80;84.40;;;;;;5109120;28;20107;-70
2023/08/31 07:19:35;;;;;;;3.13;2.65;;;15.80;84.40;;;;;;5106353;27;20390;-71
2023/08/31 07:22:00;;;;;;;4.15;2.70;;;15.90;84.30;;;;;;5107248;27;20030;-73
2023/08/31 07:24:26;;;;;;;4.15;3.05;;;16.00;84.20;;;;;;5104822;27;20028;-73
2023/08/31 07:26:52;;;;;;;5.15;3.72;;;16.00;84.40;;;;;;5102881;27;20031;-72
2023/08/31 07:29:17;;;;;;;3.70;2.70;;;16.00;84.30;;;;;;5100570;28;20058;-72
2023/08/31 07:31:43;;;;;;;6.05;3.03;;;16.00;84.30;;;;;;5103175;28;20041;-70
2023/08/31 07:34:09;;;;;;;4.68;3.28;;;16.00;84.30;;;;;;5101119;28;20031;-70
2023/08/31 07:36:34;;;;;;;4.95;2.78;;;15.90;84.40;;;;;;5099001;28;20035;-71
2023/08/31 07:39:00;;;;;;;3.38;2.55;;;15.90;84.40;;;;;;5102669;27;20036;-71
2023/08/31 07:41:26;;;;;;;5.95;3.05;;;15.90;84.50;;;;;;5100020;27;20024;-73
2023/08/31 07:43:51;;;;;;;4.60;2.92;;;15.90;84.50;;;;;;5103909;27;20027;-72
2023/08/31 07:46:18;;;;;;;8.13;3.92;;;16.00;84.50;;;;;;5106502;27;20030;-72
2023/08/31 07:48:44;;;;;;;4.38;2.30;;;16.00;84.40;;;;;;5102656;27;20151;-73
2023/08/31 07:51:09;;;;;;;8.63;3.88;;;16.10;84.50;;;;;;5104065;27;20049;-73
2023/08/31 07:53:35;;;;;;;4.90;3.15;;;16.20;84.80;;;;;;5110113;27;20028;-73
2023/08/31 07:56:01;;;;;;;2.72;2.20;;;16.30;84.60;;;;;;5108698;28;20114;-72
2023/08/31 07:58:26;;;;;;;3.85;2.92;;;16.40;84.40;;;;;;5100399;28;20516;-72
2023/08/31 08:00:54;;;;;;;6.68;2.75;;;16.40;84.30;;;;;;5102369;28;20130;-73
2023/08/31 08:03:19;;;;;;;4.28;2.83;;;16.40;84.00;;;;;;5103721;28;20552;-72
2023/08/31 08:05:45;;;;;;;5.07;3.08;;;16.40;84.00;;;;;;5111867;28;20112;-78
2023/08/31 08:08:11;;;;;;;3.80;2.30;;;16.40;83.90;;;;;;5110193;28;20039;-78
2023/08/31 08:10:37;;;;;;;3.08;2.60;;;16.40;84.20;;;;;;5105871;28;20040;-78
2023/08/31 08:13:03;;;;;;;3.30;2.30;;;16.40;84.30;;;;;;5100646;28;20039;-78
2023/08/31 08:15:30;;;;;;;4.63;2.78;;;16.40;84.30;;;;;;5106486;28;20482;-77
2023/08/31 08:17:57;;;;;;;7.43;2.45;;;16.40;84.30;;;;;;5107392;28;20504;-78
2023/08/31 08:20:23;;;;;;;4.50;2.38;;;16.30;84.30;;;;;;5087744;28;20076;-78
2023/08/31 08:22:52;;;;;;;4.38;2.08;;;16.30;84.50;;;;;;5105900;28;20117;-72
2023/08/31 08:25:21;;;;;;;2.47;1.95;;;16.40;84.50;;;;;;5102594;28;20028;-77
2023/08/31 08:27:47;;;;;;;4.13;2.13;;;16.40;84.50;;;;;;5106524;28;20412;-77
2023/08/31 08:30:15;;;;;;;3.92;2.72;;;16.50;84.40;;;;;;5100717;28;20107;-77
2023/08/31 08:32:41;;;;;;;3.40;2.05;;;16.60;84.40;;;;;;5099071;28;20046;-77
2023/08/31 08:35:07;;;;;;;3.78;2.22;;;16.60;84.40;;;;;;5112440;28;20427;-77
2023/08/31 08:37:33;;;;;;;3.97;2.55;;;16.70;84.20;;;;;;5108778;28;20054;-72
2023/08/31 08:40:00;;;;;;;3.97;2.88;;;16.80;83.90;;;;;;5109881;28;20038;-77
2023/08/31 08:42:25;;;;;;;4.22;3.15;;;16.80;83.80;;;;;;5104316;28;20023;-77
2023/08/31 08:44:51;;;;;;;4.50;3.10;;;16.90;83.90;;;;;;5106918;28;20402;-77
2023/08/31 08:47:20;;;;;;;6.85;2.92;;;17.00;84.00;;;;;;5113750;27;20024;-77
2023/08/31 08:49:47;;;;;;;3.45;2.60;;;17.10;84.00;;;;;;5113208;28;20403;-72
2023/08/31 08:52:14;;;;;;;10.32;2.95;;;17.20;83.80;;;;;;5106856;28;20035;-72
2023/08/31 08:54:40;;;;;;;3.08;2.17;;;17.30;83.30;;;;;;5101015;27;20036;-73
2023/08/31 08:57:06;;;;;;;3.80;3.08;;;17.30;83.10;;;;;;5110477;27;20047;-73
2023/08/31 08:59:32;;;;;;;2.83;2.10;;;17.20;83.00;;;;;;5114957;27;20089;-72
2023/08/31 09:01:58;;;;;;;3.15;1.65;;;17.20;83.10;;;;;;5117228;27;20043;-73
2023/08/31 09:04:23;;;;;;;6.22;2.33;;;17.30;83.10;;;;;;5108220;27;20031;-72
2023/08/31 09:06:52;;;;;;;6.30;3.33;;;17.40;83.10;;;;;;5111625;27;20027;-75
2023/08/31 09:09:18;;;;;;;3.40;2.67;;;17.40;82.90;;;;;;5107012;27;20031;-76
2023/08/31 09:11:45;;;;;;;4.18;2.83;;;17.50;83.20;;;;;;5111327;27;20057;-77
2023/08/31 09:14:16;;;;;;;9.32;3.35;;;17.50;83.40;;;;;;5105233;27;20454;-77
2023/08/31 09:16:48;;;;;;;4.53;2.15;;;17.60;83.50;;;;;;5110814;27;20039;-75
2023/08/31 09:19:22;;;;;;;30.08;2.63;;;17.70;83.50;;;;;;5092632;27;20042;-77
2023/08/31 09:21:52;;;;;;;1.50;1.38;;;17.90;83.30;;;;;;5115635;27;20421;-70
2023/08/31 09:24:18;;;;;;;4.30;3.38;;;18.10;83.00;;;;;;5115214;27;20474;-70
2023/08/31 09:26:46;;;;;;;7.55;2.72;;;18.40;81.20;;;;;;5106445;28;20027;-71
2023/08/31 09:29:12;;;;;;;4.18;2.65;;;18.60;81.80;;;;;;5109717;28;20039;-72
2023/08/31 09:31:42;;;;;;;2.13;1.50;;;18.80;81.10;;;;;;5104936;28;20474;-77
2023/08/31 09:34:08;;;;;;;3.65;2.60;;;19.00;80.80;;;;;;5108755;27;20032;-77
2023/08/31 09:36:34;;;;;;;2.47;1.55;;;19.30;79.90;;;;;;5109401;28;20872;-78
2023/08/31 09:39:00;;;;;;;3.00;1.75;;;19.40;78.80;;;;;;5103437;27;20114;-77
2023/08/31 09:41:25;;;;;;;2.75;1.70;;;19.40;78.70;;;;;;5110877;27;20032;-77
2023/08/31 09:43:51;;;;;;;2.55;1.98;;;19.50;78.10;;;;;;5103332;27;20027;-76
2023/08/31 09:46:17;;;;;;;2.15;1.95;;;19.40;77.90;;;;;;5106942;27;20034;-76
2023/08/31 09:48:43;;;;;;;1.40;1.10;;;19.60;77.80;;;;;;5106257;28;20395;-75
2023/08/31 09:51:14;;;;;;;7.53;1.23;;;19.60;77.20;;;;;;5108755;27;20726;-74
2023/08/31 09:53:42;;;;;;;1.55;1.40;;;19.60;77.40;;;;;;5101939;28;20024;-73
2023/08/31 09:56:10;;;;;;;1.73;1.30;;;19.60;76.20;;;;;;5105796;28;20114;-74
2023/08/31 09:58:35;;;;;;;2.22;1.30;;;19.70;75.00;;;;;;5107997;27;20654;-73
2023/08/31 10:01:02;;;;;;;1.10;0.80;;;19.80;75.20;;;;;;5104470;28;20051;-73
2023/08/31 10:03:28;;;;;;;1.95;1.38;;;19.80;75.50;;;;;;5101304;27;20042;-75
2023/08/31 10:05:56;;;;;;;2.47;1.33;;;20.00;75.10;;;;;;5108109;28;20097;-75
2023/08/31 10:08:23;;;;;;;2.72;0.82;;;20.40;74.80;;;;;;5110906;27;20032;-76
2023/08/31 10:10:49;;;;;;;2.92;1.50;;;20.50;73.70;;;;;;5104892;28;20039;-77
2023/08/31 10:13:16;;;;;;;1.70;1.40;;;20.30;71.60;;;;;;5111054;27;20035;-72
2023/08/31 10:15:44;;;;;;;1.35;0.82;;;20.00;72.60;;;;;;5111596;27;20114;-72
2023/08/31 10:18:09;;;;;;;1.02;0.90;;;19.80;73.30;;;;;;5114044;27;20027;-72
2023/08/31 10:20:35;;;;;;;0.95;0.80;;;19.50;73.90;;;;;;5114126;27;20024;-72
2023/08/31 10:23:05;;;;;;;1.65;1.23;;;19.30;74.70;;;;;;5106423;28;20557;-72
2023/08/31 10:25:46;;;;;;;1.75;1.63;;;19.20;75.00;;;;;;5110923;27;20545;-72
2023/08/31 10:28:25;;;;;;;1.02;0.90;;;19.00;75.30;;;;;;5106447;28;20114;-72
2023/08/31 10:31:03;;;;;;;1.08;0.90;;;18.90;75.80;;;;;;5103842;28;20040;-77
2023/08/31 10:33:35;;;;;;;1.38;1.00;;;18.80;76.20;;;;;;5101305;27;20404;-76
2023/08/31 10:36:00;;;;;;;1.30;0.95;;;18.80;76.60;;;;;;5105683;27;21177;-76
2023/08/31 10:38:28;;;;;;;1.15;1.02;;;18.80;76.70;;;;;;5104870;27;20027;-76
2023/08/31 10:41:21;;;;;;;1.42;1.20;;;18.90;77.10;;;;;;5103876;27;20493;-76
2023/08/31 10:43:54;;;;;;;0.98;0.90;;;19.30;77.10;;;;;;5099146;27;20024;-76
2023/08/31 10:46:31;;;;;;;1.17;1.00;;;19.70;76.40;;;;;;5108664;27;20043;-77
2023/08/31 10:49:02;;;;;;;1.13;0.98;;;20.00;75.90;;;;;;5100420;27;20031;-76
2023/08/31 10:51:32;;;;;;;1.50;1.20;;;20.40;75.30;;;;;;5109581;27;20352;-77
2023/08/31 10:54:13;;;;;;;2.05;1.48;;;20.90;74.60;;;;;;5107832;27;20062;-76
2023/08/31 10:57:01;;;;;;;1.25;1.13;;;21.10;71.70;;;;;;5107288;27;20040;-76
2023/08/31 10:59:40;;;;;;;0.88;0.82;;;21.30;70.70;;;;;;5103786;28;20050;-76
2023/08/31 11:02:06;;;;;;;3.80;1.10;;;21.60;70.40;;;;;;5103845;27;20855;-76
2023/08/31 11:05:05;;;;;;;1.40;0.60;;;21.70;66.70;;;;;;5096285;28;20087;-76
2023/08/31 11:07:31;;;;;;;0.70;0.70;;;21.90;67.10;;;;;;5108500;27;20038;-76
2023/08/31 11:10:09;;;;;;;0.40;0.40;;;22.10;65.70;;;;;;5107846;27;20361;-77
2023/08/31 11:12:34;;;;;;;1.35;0.73;;;22.30;64.80;;;;;;5108920;27;20093;-76
2023/08/31 11:15:00;;;;;;;0.73;0.40;;;22.40;62.60;;;;;;5105435;28;20532;-77
2023/08/31 11:17:28;;;;;;;0.70;0.65;;;22.50;63.00;;;;;;5108065;27;20038;-76
2023/08/31 11:19:54;;;;;;;0.73;0.70;;;22.60;62.80;;;;;;5106380;27;20024;-77
2023/08/31 11:22:19;;;;;;;1.05;0.47;;;22.60;61.40;;;;;;5072083;28;20486;-76
2023/08/31 11:24:46;;;;;;;1.00;0.60;;;22.60;61.30;;;;;;5106043;28;20031;-77
2023/08/31 11:27:12;;;;;;;4.95;0.75;;;22.70;60.20;;;;;;5105914;27;20031;-76
2023/08/31 11:29:43;;;;;;;0.73;0.50;;;22.90;59.50;;;;;;5073361;28;20027;-76
2023/08/31 11:32:08;;;;;;;6.78;1.30;;;23.10;60.00;;;;;;5108373;28;20405;-77
2023/08/31 11:34:36;;;;;;;0.40;0.40;;;23.30;60.10;;;;;;5105789;28;20038;-77
2023/08/31 11:37:03;;;;;;;0.50;0.50;;;23.60;61.20;;;;;;5102951;27;20034;-76
2023/08/31 11:39:28;;;;;;;0.45;0.40;;;23.80;59.30;;;;;;5102539;28;20040;-77
2023/08/31 11:41:55;;;;;;;2.35;0.60;;;23.90;57.60;;;;;;5106911;28;20490;-76
2023/08/31 11:44:21;;;;;;;1.40;0.40;;;23.80;56.40;;;;;;5101988;28;20493;-76
2023/08/31 11:46:50;;;;;;;0.60;0.60;;;23.30;56.10;;;;;;5104349;28;20020;-77
2023/08/31 11:49:17;;;;;;;0.60;0.40;;;22.70;56.60;;;;;;5101414;28;20038;-77
2023/08/31 11:51:44;;;;;;;1.15;0.40;;;22.20;56.10;;;;;;5102254;28;20104;-76
2023/08/31 11:54:10;;;;;;;3.45;0.80;;;22.00;57.00;;;;;;5105273;28;20537;-77
2023/08/31 11:56:49;;;;;;;0.40;0.40;;;22.10;56.60;;;;;;5106114;28;20023;-76
2023/08/31 11:59:18;;;;;;;0.25;0.25;;;22.30;57.00;;;;;;5108025;28;20059;-72
2023/08/31 12:01:47;;;;;;;0.50;0.50;;;22.50;56.10;;;;;;5104762;28;20123;-72
2023/08/31 12:04:16;;;;;;;0.52;0.40;;;22.60;55.90;;;;;;5100019;28;21751;-73
2023/08/31 12:06:45;;;;;;;0.38;0.38;;;22.60;54.50;;;;;;5106455;28;20020;-72
2023/08/31 12:09:11;;;;;;;0.52;0.47;;;22.60;55.10;;;;;;5104869;28;20072;-77
2023/08/31 12:11:37;;;;;;;2.78;0.60;;;22.60;55.10;;;;;;5102708;28;20042;-77
2023/08/31 12:14:04;;;;;;;4.35;0.50;;;22.70;54.70;;;;;;5107213;28;20032;-77
2023/08/31 12:16:36;;;;;;;0.93;0.60;;;23.00;54.40;;;;;;5102036;28;20055;-77
2023/08/31 12:19:05;;;;;;;1.75;0.40;;;23.20;53.90;;;;;;5104548;27;20074;-77
2023/08/31 12:21:31;;;;;;;0.43;0.30;;;23.10;53.60;;;;;;5111372;28;20039;-77
2023/08/31 12:23:58;;;;;;;0.50;0.38;;;22.90;53.20;;;;;;5109370;28;20046;-76
2023/08/31 12:26:25;;;;;;;0.40;0.40;;;22.70;54.10;;;;;;5112328;27;20028;-77
2023/08/31 12:28:50;;;;;;;0.57;0.20;;;22.80;53.30;;;;;;5111690;27;20027;-77
2023/08/31 12:31:16;;;;;;;0.80;0.57;;;23.20;53.50;;;;;;5110258;28;20107;-73
2023/08/31 12:33:42;;;;;;;0.30;0.30;;;23.40;51.50;;;;;;5108550;27;20070;-68
2023/08/31 12:36:07;;;;;;;0.25;0.25;;;23.50;50.40;;;;;;5111097;28;20023;-67
2023/08/31 12:38:33;;;;;;;2.15;0.52;;;23.30;49.40;;;;;;5103473;28;20133;-68
2023/08/31 12:40:59;;;;;;;0.30;0.30;;;23.10;50.70;;;;;;5110156;27;20031;-67
2023/08/31 12:43:25;;;;;;;0.22;0.20;;;23.10;51.20;;;;;;5105576;28;20043;-67
2023/08/31 12:45:50;;;;;;;0.35;0.35;;;23.20;50.90;;;;;;5102875;28;20035;-72